Time;durP1;ratioP1;P1;durP2;ratioP2;P2;SDS_P1;SDS_P2;PMS_P1;PMS_P2;Temp;Humidity;BMP_temperature;BMP_pressure;BME280_temperature;BME280_humidity;BME280_pressure;Samples;Min_cycle;Max_cycle;Signal;HPM_P1;HPM_P2
2021/08/04 00:00:26;;;;;;;3.33;2.30;;;23.00;99.90;;;;;;5091103;28;20024;-73
2021/08/04 00:02:52;;;;;;;7.88;3.05;;;23.00;99.90;;;;;;5088637;28;20027;-73
2021/08/04 00:05:19;;;;;;;9.02;2.42;;;23.00;99.90;;;;;;5092982;28;20126;-74
2021/08/04 00:07:45;;;;;;;4.38;2.30;;;23.00;99.90;;;;;;5074526;28;20039;-74
2021/08/04 00:10:12;;;;;;;3.97;2.30;;;23.00;99.90;;;;;;5091584;28;20362;-74
2021/08/04 00:12:38;;;;;;;6.10;2.42;;;23.00;99.90;;;;;;5083655;28;20154;-74
2021/08/04 00:15:04;;;;;;;5.57;2.10;;;23.00;99.90;;;;;;5090835;28;20062;-74
2021/08/04 00:17:30;;;;;;;2.90;2.22;;;23.00;99.90;;;;;;5089678;28;20096;-74
2021/08/04 00:19:56;;;;;;;8.07;3.40;;;22.90;99.90;;;;;;5068151;28;20389;-74
2021/08/04 00:22:22;;;;;;;9.27;2.72;;;23.00;99.90;;;;;;5072601;28;20712;-74
2021/08/04 00:24:47;;;;;;;3.47;1.92;;;23.00;99.90;;;;;;5065423;28;20081;-74
2021/08/04 00:27:13;;;;;;;3.03;2.22;;;22.90;99.90;;;;;;5071219;28;20031;-73
2021/08/04 00:29:39;;;;;;;4.82;2.67;;;22.90;99.90;;;;;;5070733;28;20024;-74
2021/08/04 00:32:05;;;;;;;3.45;2.53;;;22.80;99.90;;;;;;5088751;28;20028;-74
2021/08/04 00:34:31;;;;;;;5.35;2.58;;;22.60;99.90;;;;;;5068965;28;20024;-74
2021/08/04 00:36:56;;;;;;;6.38;2.88;;;22.60;99.90;;;;;;5087207;28;20025;-74
2021/08/04 00:39:22;;;;;;;2.55;1.92;;;22.60;99.90;;;;;;5091880;28;20386;-74
2021/08/04 00:41:48;;;;;;;4.80;2.55;;;22.60;99.90;;;;;;5067735;28;20036;-74
2021/08/04 00:44:14;;;;;;;7.50;2.67;;;22.60;99.90;;;;;;5081917;28;20028;-75
2021/08/04 00:46:41;;;;;;;7.63;2.58;;;22.60;99.90;;;;;;5077266;28;20165;-73
2021/08/04 00:49:09;;;;;;;6.05;2.90;;;22.60;99.90;;;;;;5096453;28;20016;-73
2021/08/04 00:51:35;;;;;;;4.82;3.05;;;22.50;99.90;;;;;;5071366;28;20024;-73
2021/08/04 00:54:14;;;;;;;7.50;2.40;;;22.40;99.90;;;;;;5098349;28;20027;-74
2021/08/04 00:56:42;;;;;;;7.68;2.70;;;22.30;99.90;;;;;;5076816;28;20032;-74
2021/08/04 00:59:15;;;;;;;6.40;3.17;;;22.30;99.90;;;;;;5098006;28;20021;-75
2021/08/04 01:01:55;;;;;;;4.25;2.72;;;22.40;99.90;;;;;;5090482;28;20054;-75
2021/08/04 01:04:30;;;;;;;6.53;2.22;;;22.40;99.90;;;;;;5097948;28;20178;-72
2021/08/04 01:07:22;;;;;;;7.07;2.85;;;22.40;99.90;;;;;;5092078;28;20031;-73
2021/08/04 01:09:52;;;;;;;9.20;4.15;;;22.30;99.90;;;;;;5112718;28;20032;-72
2021/08/04 01:12:42;;;;;;;13.25;2.60;;;22.30;99.90;;;;;;5099487;28;20069;-73
2021/08/04 01:15:09;;;;;;;7.85;2.75;;;22.30;99.90;;;;;;5096008;28;20020;-73
2021/08/04 01:17:38;;;;;;;4.65;2.50;;;22.30;99.90;;;;;;5066875;28;20031;-73
2021/08/04 01:20:04;;;;;;;7.57;2.78;;;22.20;99.90;;;;;;5086851;28;20084;-72
2021/08/04 01:23:03;;;;;;;8.73;2.45;;;22.10;99.90;;;;;;5090780;28;20482;-73
2021/08/04 01:25:39;;;;;;;4.57;2.75;;;22.10;99.90;;;;;;5087731;28;21428;-72
2021/08/04 01:28:28;;;;;;;2.88;2.38;;;22.00;99.90;;;;;;5091865;28;20051;-72
2021/08/04 01:31:06;;;;;;;12.73;2.88;;;22.00;99.90;;;;;;5080353;28;20024;-73
2021/08/04 01:33:35;;;;;;;7.68;2.40;;;21.90;99.90;;;;;;5071193;28;20119;-72
2021/08/04 01:36:00;;;;;;;4.00;2.88;;;21.90;99.90;;;;;;5071031;28;20020;-72
2021/08/04 01:38:29;;;;;;;3.58;2.08;;;21.90;99.90;;;;;;5091685;28;20050;-73
2021/08/04 01:40:55;;;;;;;4.35;2.10;;;21.90;99.90;;;;;;5071252;28;20482;-73
2021/08/04 01:43:23;;;;;;;5.68;2.10;;;21.90;99.90;;;;;;5071997;28;20028;-72
2021/08/04 01:45:50;;;;;;;6.72;2.60;;;22.00;99.90;;;;;;5091311;28;20493;-73
2021/08/04 01:48:17;;;;;;;8.77;2.80;;;22.00;99.90;;;;;;5071743;28;20051;-73
2021/08/04 01:50:43;;;;;;;4.65;2.22;;;22.00;99.90;;;;;;5071982;28;20295;-73
2021/08/04 01:53:10;;;;;;;2.47;1.92;;;22.00;99.90;;;;;;5070659;28;20025;-73
2021/08/04 01:55:37;;;;;;;6.80;2.67;;;22.10;99.90;;;;;;5062153;28;20169;-73
2021/08/04 01:58:03;;;;;;;3.60;1.92;;;22.20;99.90;;;;;;5065509;28;20040;-73
2021/08/04 02:00:28;;;;;;;2.72;2.00;;;22.10;99.90;;;;;;5087525;28;20024;-74
2021/08/04 02:02:54;;;;;;;7.25;2.92;;;22.00;99.90;;;;;;5081549;28;20110;-74
2021/08/04 02:05:20;;;;;;;4.95;2.85;;;22.00;99.90;;;;;;5063743;28;20413;-73
2021/08/04 02:08:01;;;;;;;7.88;3.03;;;21.90;99.90;;;;;;5071980;28;20032;-74
2021/08/04 02:10:37;;;;;;;9.95;2.80;;;21.90;99.90;;;;;;5066661;28;20393;-73
2021/08/04 02:13:37;;;;;;;3.78;2.63;;;22.00;99.90;;;;;;5063763;28;20530;-74
2021/08/04 02:16:19;;;;;;;7.15;2.58;;;22.00;99.90;;;;;;5087746;28;20334;-74
2021/08/04 02:18:49;;;;;;;4.78;2.40;;;22.00;99.90;;;;;;5066235;28;20363;-73
2021/08/04 02:21:16;;;;;;;3.90;2.55;;;22.00;99.90;;;;;;5086624;28;20024;-73
2021/08/04 02:23:45;;;;;;;5.03;1.98;;;22.00;99.90;;;;;;5089981;28;20020;-73
2021/08/04 02:26:14;;;;;;;6.15;2.63;;;22.00;99.90;;;;;;5082213;28;20107;-73
2021/08/04 02:28:43;;;;;;;14.48;3.30;;;21.90;99.90;;;;;;5071244;28;20106;-73
2021/08/04 02:31:12;;;;;;;5.30;2.65;;;21.90;99.90;;;;;;5088170;28;20024;-76
2021/08/04 02:33:39;;;;;;;4.32;2.35;;;21.90;99.90;;;;;;5091367;28;20020;-74
2021/08/04 02:36:05;;;;;;;10.30;2.90;;;21.80;99.90;;;;;;5071551;28;20035;-74
2021/08/04 02:38:32;;;;;;;6.00;2.17;;;21.70;99.90;;;;;;5072336;28;20035;-74
2021/08/04 02:40:58;;;;;;;5.15;3.35;;;21.60;99.90;;;;;;5071642;28;20071;-75
2021/08/04 02:43:24;;;;;;;10.20;2.70;;;21.50;99.90;;;;;;5069603;28;20055;-73
2021/08/04 02:45:51;;;;;;;4.55;3.17;;;21.50;99.90;;;;;;5071588;28;20042;-73
2021/08/04 02:48:18;;;;;;;5.47;2.45;;;21.50;99.90;;;;;;5068067;28;20105;-73
2021/08/04 02:50:52;;;;;;;10.07;3.17;;;21.40;99.90;;;;;;5090071;28;20632;-75
2021/08/04 02:53:19;;;;;;;4.13;2.72;;;21.30;99.90;;;;;;5063501;28;20165;-75
2021/08/04 02:55:48;;;;;;;6.07;2.95;;;21.30;99.90;;;;;;5071794;28;20076;-75
2021/08/04 02:58:13;;;;;;;2.60;2.40;;;21.40;99.90;;;;;;5089374;28;20356;-75
2021/08/04 03:00:40;;;;;;;6.35;3.05;;;21.30;99.90;;;;;;5096032;28;20045;-74
2021/08/04 03:03:06;;;;;;;8.10;2.58;;;21.20;99.90;;;;;;5085450;28;20386;-74
2021/08/04 03:05:32;;;;;;;6.32;2.95;;;21.20;99.90;;;;;;5071793;28;20122;-73
2021/08/04 03:07:58;;;;;;;7.65;2.30;;;21.10;99.90;;;;;;5070767;28;20178;-74
2021/08/04 03:10:24;;;;;;;5.93;2.67;;;21.20;99.90;;;;;;5086711;28;20020;-74
2021/08/04 03:12:50;;;;;;;7.43;2.42;;;21.30;99.90;;;;;;5070582;28;20051;-73
2021/08/04 03:15:15;;;;;;;6.68;2.45;;;21.30;99.90;;;;;;5066190;28;20024;-74
2021/08/04 03:17:41;;;;;;;5.35;2.22;;;21.30;99.90;;;;;;5062962;28;20514;-73
2021/08/04 03:20:08;;;;;;;5.50;2.97;;;21.30;99.90;;;;;;5071606;28;20096;-73
2021/08/04 03:22:34;;;;;;;5.85;3.63;;;21.30;99.90;;;;;;5096561;28;20052;-74
2021/08/04 03:25:00;;;;;;;10.82;4.60;;;21.30;99.90;;;;;;5090378;28;20113;-74
2021/08/04 03:27:26;;;;;;;5.35;2.50;;;21.30;99.90;;;;;;5091419;28;20089;-74
2021/08/04 03:29:51;;;;;;;4.13;2.83;;;21.40;99.90;;;;;;5071946;28;20024;-73
2021/08/04 03:32:18;;;;;;;6.18;2.70;;;21.40;99.90;;;;;;5091126;28;20023;-72
2021/08/04 03:34:44;;;;;;;7.10;2.95;;;21.30;99.90;;;;;;5074536;28;20030;-73
2021/08/04 03:37:09;;;;;;;4.25;2.55;;;21.30;99.90;;;;;;5073673;28;21285;-73
2021/08/04 03:39:35;;;;;;;6.30;3.05;;;21.20;99.90;;;;;;5092939;28;20105;-73
2021/08/04 03:42:01;;;;;;;6.43;2.65;;;21.10;99.90;;;;;;5089808;28;20108;-74
2021/08/04 03:44:27;;;;;;;9.52;2.63;;;21.00;99.90;;;;;;5073064;28;20115;-74
2021/08/04 03:46:56;;;;;;;4.22;3.08;;;21.10;99.90;;;;;;5066042;28;20032;-74
2021/08/04 03:49:21;;;;;;;6.05;2.72;;;21.30;99.90;;;;;;5094454;28;20103;-73
2021/08/04 03:51:47;;;;;;;10.10;2.47;;;21.30;99.90;;;;;;5090461;28;20417;-74
2021/08/04 03:54:13;;;;;;;5.43;2.42;;;21.40;99.90;;;;;;5075355;28;20027;-73
2021/08/04 03:56:39;;;;;;;6.68;2.92;;;21.40;99.90;;;;;;5079562;28;20492;-74
2021/08/04 03:59:05;;;;;;;9.05;3.35;;;21.50;99.90;;;;;;5090216;28;20033;-74
2021/08/04 04:01:30;;;;;;;7.38;3.45;;;21.60;99.90;;;;;;5088041;28;20024;-73
2021/08/04 04:03:56;;;;;;;6.30;3.35;;;21.70;99.90;;;;;;5092834;28;20064;-73
2021/08/04 04:06:22;;;;;;;6.72;3.20;;;21.70;99.90;;;;;;5091612;28;20028;-73
2021/08/04 04:08:47;;;;;;;6.70;3.20;;;21.80;99.90;;;;;;5092075;28;20032;-73
2021/08/04 04:11:13;;;;;;;5.63;3.10;;;21.80;99.90;;;;;;5090957;28;20381;-73
2021/08/04 04:13:39;;;;;;;5.60;2.80;;;21.80;99.90;;;;;;5070317;28;20073;-73
2021/08/04 04:16:05;;;;;;;5.75;3.03;;;21.70;99.90;;;;;;5093270;28;20030;-74
2021/08/04 04:18:31;;;;;;;8.57;3.40;;;21.70;99.90;;;;;;5084708;28;20024;-73
2021/08/04 04:20:56;;;;;;;8.90;2.97;;;21.70;99.90;;;;;;5068703;28;20071;-73
2021/08/04 04:23:22;;;;;;;8.38;2.22;;;21.70;99.90;;;;;;5070514;28;20114;-74
2021/08/04 04:25:48;;;;;;;8.95;2.80;;;21.70;99.90;;;;;;5090754;28;20028;-74
2021/08/04 04:28:13;;;;;;;6.03;2.55;;;21.80;99.90;;;;;;5091745;28;20056;-73
2021/08/04 04:30:39;;;;;;;13.00;3.38;;;21.80;99.90;;;;;;5070370;28;20031;-74
2021/08/04 04:33:05;;;;;;;4.82;2.47;;;21.90;99.90;;;;;;5072809;28;20028;-73
2021/08/04 04:35:31;;;;;;;6.65;2.72;;;21.90;99.90;;;;;;5098249;28;20484;-75
2021/08/04 04:37:56;;;;;;;4.18;2.70;;;22.00;99.90;;;;;;5090599;28;20431;-73
2021/08/04 04:40:22;;;;;;;4.45;2.20;;;22.10;99.90;;;;;;5090338;28;20024;-73
2021/08/04 04:42:48;;;;;;;9.02;2.90;;;22.10;99.90;;;;;;5079909;28;20432;-74
2021/08/04 04:45:14;;;;;;;10.73;2.88;;;22.10;99.90;;;;;;5068651;28;20467;-73
2021/08/04 04:47:40;;;;;;;17.08;3.47;;;22.20;99.90;;;;;;5086714;28;20020;-73
2021/08/04 04:50:06;;;;;;;8.02;3.33;;;22.20;99.90;;;;;;5073207;28;20101;-73
2021/08/04 04:52:38;;;;;;;5.05;2.70;;;22.20;99.90;;;;;;5086917;28;20021;-73
2021/08/04 04:55:04;;;;;;;6.90;3.15;;;22.30;99.90;;;;;;5070150;28;20028;-73
2021/08/04 04:57:29;;;;;;;6.35;3.28;;;22.30;99.90;;;;;;5084677;28;20099;-74
2021/08/04 05:00:06;;;;;;;6.18;2.85;;;22.40;99.90;;;;;;5067431;28;20047;-75
2021/08/04 05:02:41;;;;;;;4.68;2.92;;;22.50;99.90;;;;;;5069378;28;20086;-74
2021/08/04 05:05:12;;;;;;;4.10;3.15;;;22.60;99.90;;;;;;5083217;28;20028;-74
2021/08/04 05:07:38;;;;;;;4.80;2.77;;;22.70;99.90;;;;;;5086287;28;20023;-72
2021/08/04 05:10:04;;;;;;;3.25;2.53;;;22.90;99.90;;;;;;5089059;28;20325;-72
2021/08/04 05:12:30;;;;;;;9.65;4.50;;;23.00;99.90;;;;;;5086241;28;20028;-73
2021/08/04 05:14:56;;;;;;;11.93;5.05;;;23.00;99.90;;;;;;5071891;28;20031;-73
2021/08/04 05:17:42;;;;;;;9.85;2.92;;;23.00;99.90;;;;;;5069051;28;20031;-74
2021/08/04 05:20:15;;;;;;;15.25;4.22;;;23.00;99.90;;;;;;5088583;28;20184;-71
2021/08/04 05:22:46;;;;;;;6.20;3.10;;;23.10;99.90;;;;;;5069213;28;20024;-72
2021/08/04 05:25:17;;;;;;;6.65;3.25;;;23.20;99.90;;;;;;5086869;28;20028;-72
2021/08/04 05:27:48;;;;;;;6.35;3.25;;;23.40;99.90;;;;;;5093556;28;20032;-71
2021/08/04 05:30:20;;;;;;;3.87;3.03;;;23.40;99.90;;;;;;5073254;28;20047;-71
2021/08/04 05:32:51;;;;;;;4.88;3.38;;;23.50;99.90;;;;;;5089930;28;20640;-73
2021/08/04 05:35:23;;;;;;;6.35;4.57;;;23.50;99.90;;;;;;5086774;28;20031;-72
2021/08/04 05:37:55;;;;;;;5.68;3.20;;;23.60;99.90;;;;;;5097505;28;20388;-71
2021/08/04 05:40:26;;;;;;;8.73;2.92;;;23.60;99.90;;;;;;5076004;28;20047;-70
2021/08/04 05:42:57;;;;;;;11.27;3.25;;;23.60;99.90;;;;;;5087406;28;20371;-69
2021/08/04 05:45:31;;;;;;;9.02;3.58;;;23.60;99.90;;;;;;5087365;28;20028;-70
2021/08/04 05:48:03;;;;;;;11.63;4.82;;;23.60;99.90;;;;;;5088351;28;20028;-71
2021/08/04 05:50:35;;;;;;;4.72;3.67;;;23.60;99.90;;;;;;5072975;28;20024;-71
2021/08/04 05:53:07;;;;;;;8.40;3.90;;;23.50;99.90;;;;;;5072318;28;20390;-69
2021/08/04 05:55:34;;;;;;;15.77;5.22;;;23.60;99.90;;;;;;5090864;28;20337;-69
2021/08/04 05:58:00;;;;;;;10.23;4.55;;;23.70;99.90;;;;;;5077369;28;20027;-69
2021/08/04 06:00:26;;;;;;;5.40;3.40;;;23.60;99.90;;;;;;5072030;28;20501;-69
2021/08/04 06:02:52;;;;;;;6.20;3.85;;;23.60;99.90;;;;;;5067568;28;20127;-70
2021/08/04 06:05:18;;;;;;;4.63;2.80;;;23.60;99.90;;;;;;5068637;28;20056;-70
2021/08/04 06:07:44;;;;;;;7.18;2.97;;;23.70;99.90;;;;;;5071662;28;20024;-68
2021/08/04 06:10:11;;;;;;;6.40;3.47;;;23.80;99.90;;;;;;5089831;28;20020;-69
2021/08/04 06:12:37;;;;;;;4.82;3.67;;;23.90;99.90;;;;;;5079940;28;20040;-69
2021/08/04 06:15:03;;;;;;;14.27;4.53;;;23.90;99.90;;;;;;5084424;28;20098;-70
2021/08/04 06:17:28;;;;;;;8.57;3.33;;;23.80;99.90;;;;;;5072688;28;20054;-72
2021/08/04 06:19:54;;;;;;;6.72;3.53;;;23.90;99.90;;;;;;5071665;28;20032;-69
2021/08/04 06:22:20;;;;;;;13.10;3.33;;;24.00;99.90;;;;;;5088297;28;20032;-69
2021/08/04 06:24:46;;;;;;;7.25;2.78;;;24.00;99.90;;;;;;5071908;28;20448;-70
2021/08/04 06:27:11;;;;;;;6.15;3.13;;;24.00;99.90;;;;;;5092970;28;20028;-68
2021/08/04 06:29:37;;;;;;;7.70;3.40;;;24.00;99.90;;;;;;5089835;28;20055;-69
2021/08/04 06:32:03;;;;;;;8.10;2.90;;;24.20;99.90;;;;;;5069903;28;20046;-69
2021/08/04 06:34:29;;;;;;;8.00;2.47;;;24.30;99.90;;;;;;5083419;28;20581;-69
2021/08/04 06:36:55;;;;;;;3.28;2.30;;;24.20;99.90;;;;;;5072043;28;20107;-68
2021/08/04 06:39:21;;;;;;;9.40;3.35;;;24.20;99.90;;;;;;5061223;28;20402;-69
2021/08/04 06:41:46;;;;;;;6.68;2.65;;;24.40;99.90;;;;;;5081248;28;20032;-68
2021/08/04 06:44:12;;;;;;;10.85;2.85;;;24.50;99.90;;;;;;5081767;28;20432;-70
2021/08/04 06:46:39;;;;;;;11.50;3.05;;;24.50;99.90;;;;;;5083092;28;20085;-70
2021/08/04 06:49:06;;;;;;;6.65;2.70;;;24.60;99.90;;;;;;5069917;28;20024;-69
2021/08/04 06:51:33;;;;;;;6.82;3.05;;;24.80;99.90;;;;;;5070472;28;20028;-69
2021/08/04 06:54:00;;;;;;;8.05;3.85;;;25.00;99.90;;;;;;5069361;28;20029;-69
2021/08/04 06:56:26;;;;;;;7.75;2.63;;;25.00;99.90;;;;;;5063620;28;20028;-69
2021/08/04 06:58:52;;;;;;;4.57;3.58;;;25.10;99.90;;;;;;5071019;28;20474;-70
2021/08/04 07:01:17;;;;;;;10.40;2.95;;;25.10;99.90;;;;;;5072635;28;20035;-68
2021/08/04 07:03:43;;;;;;;3.75;2.70;;;25.20;99.90;;;;;;5089871;28;20490;-70
2021/08/04 07:06:09;;;;;;;7.22;2.83;;;25.30;99.90;;;;;;5090502;28;20024;-70
2021/08/04 07:08:36;;;;;;;7.35;2.95;;;25.40;99.90;;;;;;5091726;28;20093;-71
2021/08/04 07:11:02;;;;;;;6.93;2.90;;;25.50;99.90;;;;;;5091835;28;20032;-70
2021/08/04 07:13:28;;;;;;;4.80;3.00;;;25.60;99.90;;;;;;5088774;28;20089;-70
2021/08/04 07:15:54;;;;;;;6.15;2.58;;;25.70;99.90;;;;;;5087800;28;20474;-70
2021/08/04 07:18:20;;;;;;;5.20;2.90;;;25.70;99.90;;;;;;5066767;28;20032;-69
2021/08/04 07:20:46;;;;;;;5.35;2.55;;;25.60;99.90;;;;;;5092054;28;20282;-68
2021/08/04 07:23:12;;;;;;;4.43;2.60;;;25.60;99.90;;;;;;5090813;28;20470;-70
2021/08/04 07:25:38;;;;;;;5.55;3.00;;;25.50;99.90;;;;;;5089361;28;20024;-69
2021/08/04 07:28:04;;;;;;;3.45;2.60;;;25.40;99.90;;;;;;5093525;28;20110;-69
2021/08/04 07:30:30;;;;;;;7.75;3.08;;;25.50;99.90;;;;;;5092391;28;20055;-69
2021/08/04 07:32:55;;;;;;;10.00;4.13;;;25.50;99.90;;;;;;5074384;28;20093;-70
2021/08/04 07:35:22;;;;;;;10.07;4.18;;;25.60;99.90;;;;;;5093691;28;20027;-69
2021/08/04 07:37:48;;;;;;;6.28;3.15;;;25.80;99.90;;;;;;5069214;28;20032;-69
2021/08/04 07:40:16;;;;;;;7.40;3.22;;;25.90;99.90;;;;;;5070693;28;20051;-70
2021/08/04 07:42:42;;;;;;;5.72;2.55;;;26.00;99.90;;;;;;5082070;28;20506;-70
2021/08/04 07:45:08;;;;;;;4.28;2.97;;;26.00;99.90;;;;;;5090159;28;20125;-70
2021/08/04 07:47:34;;;;;;;4.32;2.70;;;26.10;99.90;;;;;;5071225;28;20031;-70
2021/08/04 07:50:01;;;;;;;5.75;2.75;;;26.10;99.90;;;;;;5090339;28;20020;-71
2021/08/04 07:52:26;;;;;;;5.82;2.60;;;26.20;99.90;;;;;;5093183;28;20060;-71
2021/08/04 07:54:52;;;;;;;3.75;2.70;;;26.20;99.90;;;;;;5092518;28;20012;-71
2021/08/04 07:57:18;;;;;;;5.55;3.38;;;26.30;99.90;;;;;;5072264;28;20043;-71
2021/08/04 07:59:44;;;;;;;5.75;2.60;;;26.60;99.90;;;;;;5093951;28;20030;-71
2021/08/04 08:02:10;;;;;;;7.53;3.47;;;26.60;99.90;;;;;;5072397;28;20164;-69
2021/08/04 08:04:35;;;;;;;7.38;3.47;;;26.70;99.90;;;;;;5074545;28;20428;-69
2021/08/04 08:07:02;;;;;;;7.30;2.80;;;26.80;99.90;;;;;;5092564;28;20594;-68
2021/08/04 08:09:28;;;;;;;10.55;3.20;;;26.90;99.90;;;;;;5073749;28;20504;-68
2021/08/04 08:11:58;;;;;;;10.13;3.45;;;27.00;99.90;;;;;;5089097;28;20028;-69
2021/08/04 08:14:24;;;;;;;7.97;3.60;;;27.10;99.90;;;;;;5072998;28;20016;-69
2021/08/04 08:16:52;;;;;;;6.22;3.47;;;27.20;99.90;;;;;;5074921;28;20406;-69
2021/08/04 08:19:25;;;;;;;5.38;3.58;;;27.30;99.90;;;;;;5075357;28;20024;-68
2021/08/04 08:21:52;;;;;;;6.50;3.47;;;27.40;99.90;;;;;;5093269;28;20085;-68
2021/08/04 08:24:34;;;;;;;11.32;3.80;;;27.50;99.90;;;;;;5113761;28;20043;-68
2021/08/04 08:27:12;;;;;;;6.30;4.63;;;27.40;99.90;;;;;;5114196;28;20020;-69
2021/08/04 08:29:42;;;;;;;7.97;3.75;;;27.60;99.90;;;;;;5082578;28;20084;-69
2021/08/04 08:32:26;;;;;;;6.85;3.08;;;27.30;99.90;;;;;;5101062;28;20106;-68
2021/08/04 08:34:55;;;;;;;6.55;2.65;;;27.30;99.90;;;;;;5088265;28;20031;-69
2021/08/04 08:37:21;;;;;;;7.00;3.03;;;27.30;99.90;;;;;;5084925;28;20490;-68
2021/08/04 08:39:47;;;;;;;4.53;3.08;;;27.10;99.90;;;;;;5072651;28;20416;-67
2021/08/04 08:42:13;;;;;;;5.28;3.45;;;27.00;99.90;;;;;;5072441;28;20360;-68
2021/08/04 08:44:39;;;;;;;8.68;2.72;;;26.80;99.90;;;;;;5092252;28;20044;-68
2021/08/04 08:47:07;;;;;;;7.72;3.35;;;26.90;99.90;;;;;;5074850;28;20113;-68
2021/08/04 08:49:33;;;;;;;7.03;3.00;;;26.90;99.90;;;;;;5092635;28;20023;-68
2021/08/04 08:51:59;;;;;;;12.55;4.10;;;27.00;99.90;;;;;;5074180;28;20110;-69
2021/08/04 08:54:26;;;;;;;5.63;2.75;;;27.10;99.90;;;;;;5092616;28;20094;-69
2021/08/04 08:56:53;;;;;;;4.43;2.75;;;27.30;99.90;;;;;;5088225;28;20032;-69
2021/08/04 08:59:19;;;;;;;7.68;2.55;;;27.60;99.90;;;;;;5082384;28;20024;-69
2021/08/04 09:01:46;;;;;;;6.88;3.20;;;27.70;99.90;;;;;;5084729;28;20065;-68
2021/08/04 09:04:16;;;;;;;4.47;2.85;;;27.80;99.90;;;;;;5088326;28;20066;-69
2021/08/04 09:06:53;;;;;;;8.32;3.72;;;27.90;99.90;;;;;;5063691;28;20067;-69
2021/08/04 09:09:23;;;;;;;5.45;3.22;;;28.00;99.90;;;;;;5076451;28;20027;-68
2021/08/04 09:11:54;;;;;;;9.65;3.00;;;28.00;99.90;;;;;;5088571;28;20048;-69
2021/08/04 09:14:27;;;;;;;;;;;28.00;99.90;;;;;;5084639;28;20012;-70
2021/08/04 09:17:09;;;;;;;2.95;2.60;;;28.10;99.90;;;;;;5087534;28;19915;-68
2021/08/04 09:19:46;;;;;;;4.85;3.53;;;28.10;99.90;;;;;;5081816;28;20032;-69
2021/08/04 09:22:23;;;;;;;6.28;3.35;;;28.10;99.90;;;;;;5089216;28;20024;-69
2021/08/04 09:24:58;;;;;;;4.38;3.13;;;28.20;99.90;;;;;;5084568;28;20103;-69
2021/08/04 09:27:43;;;;;;;8.32;2.97;;;28.40;99.90;;;;;;5090043;28;20031;-68
2021/08/04 09:30:28;;;;;;;3.03;2.72;;;28.50;99.90;;;;;;5090600;28;20500;-68
2021/08/04 09:33:16;;;;;;;9.10;3.17;;;28.70;99.90;;;;;;5068660;28;20046;-70
2021/08/04 09:35:45;;;;;;;8.82;2.70;;;29.00;99.90;;;;;;5070296;28;20492;-67
2021/08/04 09:38:11;;;;;;;2.50;2.30;;;29.20;99.90;;;;;;5088105;28;20410;-67
2021/08/04 09:40:37;;;;;;;4.80;2.95;;;29.40;99.90;;;;;;5090018;28;20419;-68
2021/08/04 09:43:03;;;;;;;8.02;3.28;;;29.50;99.90;;;;;;5089093;28;20108;-68
2021/08/04 09:45:48;;;;;;;7.63;3.17;;;29.40;99.90;;;;;;5090145;28;20024;-67
2021/08/04 09:48:18;;;;;;;7.35;4.47;;;29.40;99.90;;;;;;5088371;28;20050;-68
2021/08/04 09:50:53;;;;;;;7.10;3.20;;;29.50;99.90;;;;;;5089728;28;20031;-70
2021/08/04 09:53:33;;;;;;;5.05;2.67;;;29.70;99.90;;;;;;5089065;28;20016;-69
2021/08/04 09:56:07;;;;;;;12.20;2.83;;;29.60;99.90;;;;;;5069627;28;20028;-69
2021/08/04 09:58:44;;;;;;;4.00;3.00;;;29.30;99.90;;;;;;5056873;28;20020;-69
2021/08/04 10:01:13;;;;;;;3.40;3.10;;;29.10;99.90;;;;;;5073159;28;20030;-70
2021/08/04 10:04:04;;;;;;;5.15;2.53;;;29.10;99.90;;;;;;5072869;28;20031;-70
2021/08/04 10:06:31;;;;;;;4.78;3.17;;;29.30;99.90;;;;;;5052866;28;20028;-70
2021/08/04 10:09:00;;;;;;;5.13;3.30;;;29.40;99.90;;;;;;5054329;28;20498;-70
2021/08/04 10:11:26;;;;;;;8.00;2.53;;;29.50;99.90;;;;;;5072249;28;20028;-70
2021/08/04 10:13:56;;;;;;;5.10;2.17;;;29.50;99.90;;;;;;5089276;28;20020;-69
2021/08/04 10:16:23;;;;;;;5.18;3.67;;;29.60;99.90;;;;;;5090827;28;20070;-69
2021/08/04 10:18:51;;;;;;;3.20;2.60;;;29.40;99.90;;;;;;5069969;28;20473;-69
2021/08/04 10:21:17;;;;;;;8.57;3.10;;;29.30;99.90;;;;;;5090116;28;20442;-69
2021/08/04 10:23:51;;;;;;;5.38;2.30;;;29.70;99.90;;;;;;5072742;28;20107;-69
2021/08/04 10:26:18;;;;;;;4.32;2.55;;;29.90;99.90;;;;;;5072116;28;20024;-70
2021/08/04 10:28:44;;;;;;;6.65;2.78;;;30.10;99.90;;;;;;5071573;28;20081;-69
2021/08/04 10:31:14;;;;;;;5.95;3.03;;;29.80;99.90;;;;;;5071945;28;20119;-69
2021/08/04 10:33:41;;;;;;;4.53;2.88;;;29.60;99.90;;;;;;5079535;28;20402;-69
2021/08/04 10:36:15;;;;;;;5.38;2.78;;;29.70;99.90;;;;;;5088642;28;20028;-68
2021/08/04 10:38:56;;;;;;;7.35;4.13;;;29.90;99.90;;;;;;5089788;28;20099;-69
2021/08/04 10:41:24;;;;;;;5.60;2.97;;;30.00;99.90;;;;;;5072625;28;20024;-69
2021/08/04 10:43:50;;;;;;;4.15;3.00;;;29.90;99.90;;;;;;5067360;28;20028;-69
2021/08/04 10:46:30;;;;;;;4.35;3.17;;;29.80;99.90;;;;;;5091431;28;20016;-69
2021/08/04 10:49:09;;;;;;;6.68;3.35;;;29.90;99.90;;;;;;5091419;28;20048;-69
2021/08/04 10:51:36;;;;;;;6.78;2.63;;;29.90;99.90;;;;;;5090692;28;20020;-69
2021/08/04 10:54:02;;;;;;;5.82;2.42;;;30.10;99.90;;;;;;5091365;28;20035;-71
2021/08/04 10:56:39;;;;;;;2.75;2.53;;;30.30;99.90;;;;;;5089316;28;20032;-70
2021/08/04 10:59:08;;;;;;;4.68;3.33;;;30.70;99.90;;;;;;5100456;28;20020;-71
2021/08/04 11:01:34;;;;;;;3.40;2.85;;;30.90;99.90;;;;;;5091724;28;20028;-69
2021/08/04 11:04:01;;;;;;;6.38;3.08;;;31.00;99.90;;;;;;5090389;28;20394;-69
2021/08/04 11:06:26;;;;;;;6.85;3.40;;;30.80;99.90;;;;;;5072054;28;20028;-68
2021/08/04 11:09:22;;;;;;;4.55;3.35;;;30.70;99.90;;;;;;5071920;28;20043;-68
2021/08/04 11:11:55;;;;;;;8.25;3.15;;;30.80;99.90;;;;;;5036302;28;20246;-70
2021/08/04 11:14:41;;;;;;;5.55;3.33;;;31.10;99.90;;;;;;5071514;28;20651;-70
2021/08/04 11:17:10;;;;;;;5.72;2.90;;;31.20;99.90;;;;;;5089862;28;20020;-70
2021/08/04 11:20:08;;;;;;;12.65;3.42;;;31.20;99.90;;;;;;5090243;28;20060;-69
2021/08/04 11:22:36;;;;;;;6.65;3.97;;;31.00;99.90;;;;;;5071687;28;20020;-71
2021/08/04 11:25:04;;;;;;;5.20;2.78;;;31.30;99.90;;;;;;5071786;28;20028;-69
2021/08/04 11:27:37;;;;;;;3.58;2.50;;;31.30;99.90;;;;;;5090355;28;20024;-71
2021/08/04 11:30:03;;;;;;;3.40;2.83;;;31.50;99.90;;;;;;5090349;28;20070;-70
2021/08/04 11:32:31;;;;;;;6.70;3.67;;;31.50;99.90;;;;;;5089797;28;20021;-70
2021/08/04 11:35:13;;;;;;;4.63;2.50;;;31.30;99.90;;;;;;5071694;28;20051;-69
2021/08/04 11:37:43;;;;;;;3.28;2.47;;;31.20;99.90;;;;;;5071497;28;20097;-69
2021/08/04 11:40:10;;;;;;;3.10;2.78;;;31.30;99.90;;;;;;5090456;28;20020;-69
2021/08/04 11:42:36;;;;;;;3.95;2.58;;;31.30;99.90;;;;;;5056522;28;20032;-71
2021/08/04 11:45:10;;;;;;;5.40;2.88;;;31.40;99.90;;;;;;5093544;28;20490;-70
2021/08/04 11:47:36;;;;;;;4.93;2.60;;;31.20;99.90;;;;;;5094666;28;20020;-70
2021/08/04 11:50:06;;;;;;;5.25;2.90;;;31.40;99.90;;;;;;5076917;28;20027;-70
2021/08/04 11:52:33;;;;;;;2.85;2.65;;;31.50;99.90;;;;;;5075980;28;20025;-70
2021/08/04 11:55:00;;;;;;;3.47;2.50;;;31.60;99.90;;;;;;5073478;28;20032;-70
2021/08/04 11:57:30;;;;;;;8.07;2.63;;;31.70;99.90;;;;;;5073457;28;20189;-69
2021/08/04 12:00:09;;;;;;;4.93;3.60;;;31.30;99.90;;;;;;5055420;28;20024;-70
2021/08/04 12:02:37;;;;;;;3.25;2.47;;;31.20;99.90;;;;;;5073321;28;20169;-70
2021/08/04 12:05:05;;;;;;;2.53;2.33;;;31.10;99.90;;;;;;5093085;28;20028;-69
2021/08/04 12:07:36;;;;;;;3.60;2.42;;;30.90;99.90;;;;;;5073983;28;20257;-69
2021/08/04 12:10:04;;;;;;;4.93;3.05;;;30.80;99.90;;;;;;5075804;28;20367;-70
2021/08/04 12:12:35;;;;;;;4.45;3.03;;;30.60;99.90;;;;;;5075628;28;20032;-70
2021/08/04 12:15:04;;;;;;;3.42;2.65;;;30.70;99.90;;;;;;5075249;28;20031;-69
2021/08/04 12:17:34;;;;;;;6.72;2.90;;;30.90;99.90;;;;;;5074789;28;20059;-72
2021/08/04 12:20:20;;;;;;;7.93;3.63;;;31.00;99.90;;;;;;5093161;28;20032;-69
2021/08/04 12:23:10;;;;;;;3.28;2.40;;;30.70;99.90;;;;;;5074259;28;20036;-69
2021/08/04 12:25:38;;;;;;;5.40;3.50;;;30.30;99.90;;;;;;5074937;28;20215;-69
2021/08/04 12:28:05;;;;;;;10.90;3.28;;;30.30;99.90;;;;;;5074764;28;20386;-69
2021/08/04 12:30:38;;;;;;;6.25;3.15;;;30.50;99.90;;;;;;5074998;28;20020;-70
2021/08/04 12:33:07;;;;;;;7.85;3.55;;;30.60;99.90;;;;;;5092790;28;20035;-69
2021/08/04 12:35:43;;;;;;;6.93;3.35;;;30.60;99.90;;;;;;5092967;28;20099;-70
2021/08/04 12:38:21;;;;;;;7.93;3.08;;;30.90;99.90;;;;;;5074639;28;20030;-70
2021/08/04 12:40:49;;;;;;;11.75;4.07;;;31.00;99.90;;;;;;5074758;28;20020;-70
2021/08/04 12:43:17;;;;;;;3.58;2.35;;;30.80;99.90;;;;;;5074020;28;20033;-70
2021/08/04 12:45:53;;;;;;;4.50;2.92;;;30.70;99.90;;;;;;5074057;28;20039;-69
2021/08/04 12:48:21;;;;;;;4.03;2.83;;;30.60;99.90;;;;;;5092434;28;20039;-69
2021/08/04 12:50:56;;;;;;;3.78;2.50;;;30.60;99.90;;;;;;5074674;28;20119;-69
2021/08/04 12:53:22;;;;;;;4.88;2.25;;;30.40;99.90;;;;;;5073713;28;20035;-70
2021/08/04 12:55:59;;;;;;;7.10;2.72;;;30.30;99.90;;;;;;5092487;28;20035;-70